createdAt,value
2017-11-14T00:00:03.818Z,14.00
2017-11-14T00:02:31.645Z,14.43
2017-11-14T00:05:01.549Z,15.07
2017-11-14T00:07:28.994Z,12.23
2017-11-14T00:09:56.814Z,14.68
2017-11-14T00:12:26.595Z,16.70
2017-11-14T00:14:54.033Z,10.87
2017-11-14T00:17:21.537Z,12.63
2017-11-14T00:19:48.973Z,8.60
2017-11-14T00:22:16.455Z,13.80
2017-11-14T00:24:45.638Z,11.00
2017-11-14T00:27:13.194Z,8.70
2017-11-14T00:29:40.672Z,13.40
2017-11-14T00:32:08.186Z,11.90
2017-11-14T00:34:35.664Z,12.03
2017-11-14T00:37:08.023Z,11.98
2017-11-14T00:39:35.466Z,13.27
2017-11-14T00:42:02.938Z,8.93
2017-11-14T00:44:30.396Z,14.60
2017-11-14T00:46:58.801Z,10.85
2017-11-14T00:49:26.401Z,14.25
2017-11-14T00:51:53.863Z,10.47
2017-11-14T00:54:21.411Z,17.30
2017-11-14T00:56:48.841Z,15.93
2017-11-14T00:59:16.367Z,13.47
2017-11-14T01:01:43.851Z,11.63
2017-11-14T01:04:11.497Z,13.10
2017-11-14T01:06:39.984Z,10.40
2017-11-14T01:09:07.962Z,14.03
2017-11-14T01:11:37.126Z,12.33
2017-11-14T01:14:04.699Z,13.00
2017-11-14T01:16:32.158Z,11.93
2017-11-14T01:18:59.633Z,11.43
2017-11-14T01:21:27.077Z,12.18
2017-11-14T01:23:54.604Z,12.07
2017-11-14T01:26:22.050Z,12.37
2017-11-14T01:28:49.518Z,12.67
2017-11-14T01:31:16.975Z,12.95
2017-11-14T01:33:44.765Z,15.43
2017-11-14T01:36:12.245Z,12.87
2017-11-14T01:38:39.986Z,13.80
2017-11-14T01:41:07.442Z,17.00
2017-11-14T01:43:34.910Z,14.18
2017-11-14T01:46:02.658Z,11.45
2017-11-14T01:48:30.539Z,12.67
2017-11-14T01:50:58.735Z,12.70
2017-11-14T01:53:29.941Z,11.35
2017-11-14T01:55:57.571Z,12.93
2017-11-14T01:58:25.046Z,16.20
2017-11-14T02:00:52.609Z,15.65
2017-11-14T02:03:20.077Z,14.80
2017-11-14T02:05:48.154Z,13.77
2017-11-14T02:08:26.390Z,11.83
2017-11-14T02:10:55.317Z,12.37
2017-11-14T02:13:22.786Z,11.67
2017-11-14T02:15:50.228Z,17.80
2017-11-14T02:18:17.876Z,17.40
2017-11-14T02:20:46.082Z,12.23
2017-11-14T02:23:13.526Z,14.43
2017-11-14T02:25:41.003Z,15.07
2017-11-14T02:28:08.474Z,15.80
2017-11-14T02:30:38.375Z,14.43
2017-11-14T02:33:05.839Z,16.10
2017-11-14T02:35:33.339Z,14.87
2017-11-14T02:38:01.297Z,17.85
2017-11-14T02:40:29.524Z,18.20
2017-11-14T02:42:58.125Z,15.65
2017-11-14T02:45:25.618Z,16.40
2017-11-14T02:47:53.066Z,18.00
2017-11-14T02:50:20.517Z,13.00
2017-11-14T02:52:48.265Z,16.00
2017-11-14T02:55:18.142Z,12.50
2017-11-14T02:57:45.609Z,20.23
2017-11-14T03:00:13.054Z,15.00
2017-11-14T03:02:41.363Z,14.93
2017-11-14T03:05:08.830Z,15.52
2017-11-14T03:07:36.926Z,13.67
2017-11-14T03:10:04.440Z,12.15
2017-11-14T03:12:31.915Z,12.40
2017-11-14T03:14:59.996Z,14.03
2017-11-14T03:17:27.758Z,14.30
2017-11-14T03:19:56.709Z,14.70
2017-11-14T03:22:25.698Z,16.75
2017-11-14T03:24:53.170Z,16.10
2017-11-14T03:27:20.619Z,16.90
2017-11-14T03:29:48.417Z,14.63
2017-11-14T03:32:15.876Z,20.42
2017-11-14T03:34:43.346Z,15.43
2017-11-14T03:37:10.827Z,15.67
2017-11-14T03:39:42.557Z,17.20
2017-11-14T03:42:10.022Z,18.37
2017-11-14T03:44:37.497Z,16.33
2017-11-14T03:47:04.949Z,14.77
2017-11-14T03:49:32.597Z,18.30
2017-11-14T03:52:00.048Z,14.80
2017-11-14T03:54:31.882Z,15.95
2017-11-14T03:56:59.332Z,12.75
2017-11-14T03:59:26.801Z,15.47
2017-11-14T04:01:54.243Z,15.70
2017-11-14T04:04:21.745Z,13.20
2017-11-14T04:06:49.449Z,16.23
2017-11-14T04:09:17.794Z,27.55
2017-11-14T04:11:49.321Z,16.53
2017-11-14T04:14:19.211Z,17.37
2017-11-14T04:16:46.885Z,16.63
2017-11-14T04:19:14.330Z,10.83
2017-11-14T04:21:42.556Z,18.05
2017-11-14T04:24:10.269Z,12.73
2017-11-14T04:26:37.854Z,18.52
2017-11-14T04:29:08.869Z,13.20
2017-11-14T04:31:36.318Z,11.45
2017-11-14T04:34:03.769Z,10.57
2017-11-14T04:36:34.237Z,14.45
2017-11-14T04:39:02.466Z,21.85
2017-11-14T04:41:33.845Z,14.10
2017-11-14T04:44:01.304Z,17.15
2017-11-14T04:46:30.286Z,15.67
2017-11-14T04:48:57.741Z,10.53
2017-11-14T04:51:25.218Z,10.30
2017-11-14T04:53:52.659Z,16.65
2017-11-14T04:56:20.130Z,13.32
2017-11-14T04:58:47.573Z,13.05
2017-11-14T05:01:15.021Z,11.50
2017-11-14T05:03:42.505Z,11.00
2017-11-14T05:06:11.457Z,11.93
2017-11-14T05:08:39.215Z,13.83
2017-11-14T05:11:11.075Z,16.30
2017-11-14T05:13:38.524Z,10.37
2017-11-14T05:16:06.885Z,18.33
2017-11-14T05:18:34.604Z,12.87
2017-11-14T05:21:02.390Z,13.10
2017-11-14T05:23:30.066Z,11.40
2017-11-14T05:26:00.393Z,15.13
2017-11-14T05:28:27.841Z,11.27
2017-11-14T05:30:56.100Z,15.93
2017-11-14T05:33:25.410Z,16.00
2017-11-14T05:35:52.863Z,18.37
2017-11-14T05:38:21.269Z,16.02
2017-11-14T05:40:50.426Z,15.90
2017-11-14T05:43:17.878Z,12.95
2017-11-14T05:45:45.442Z,14.68
2017-11-14T05:48:12.920Z,12.18
2017-11-14T05:50:40.556Z,11.35
2017-11-14T05:53:09.654Z,11.95
2017-11-14T05:55:37.105Z,19.87
2017-11-14T05:58:16.038Z,19.77
2017-11-14T06:00:43.705Z,13.00
2017-11-14T06:03:11.158Z,15.57
2017-11-14T06:05:38.623Z,20.85
2017-11-14T06:08:06.095Z,16.95
2017-11-14T06:10:35.246Z,13.32
2017-11-14T06:13:07.010Z,17.62
2017-11-14T06:15:36.089Z,14.70
2017-11-14T06:18:03.549Z,14.30
2017-11-14T06:20:31.002Z,13.87
2017-11-14T06:23:00.162Z,12.68
2017-11-14T06:25:27.608Z,17.57
2017-11-14T06:27:55.057Z,13.17
2017-11-14T06:30:22.546Z,19.98
2017-11-14T06:32:50.011Z,13.37
2017-11-14T06:35:17.437Z,24.67
2017-11-14T06:37:45.006Z,20.63
2017-11-14T06:40:14.174Z,17.73
2017-11-14T06:42:41.637Z,16.90
2017-11-14T06:45:09.090Z,18.40
2017-11-14T06:47:36.560Z,17.10
2017-11-14T06:50:04.029Z,11.83
2017-11-14T06:52:31.522Z,15.95
2017-11-14T06:54:59.001Z,17.50
2017-11-14T06:57:27.173Z,17.65
2017-11-14T06:59:54.657Z,16.40
2017-11-14T07:02:23.136Z,17.63
2017-11-14T07:04:50.886Z,19.15
2017-11-14T07:07:18.362Z,19.30
2017-11-14T07:09:47.214Z,17.75
2017-11-14T07:12:14.651Z,20.08
2017-11-14T07:14:42.142Z,19.50
2017-11-14T07:17:09.620Z,14.98
2017-11-14T07:19:37.091Z,14.60
2017-11-14T07:22:05.262Z,16.85
2017-11-14T07:24:32.723Z,12.83
2017-11-14T07:27:01.730Z,13.43
2017-11-14T07:29:30.220Z,14.67
2017-11-14T07:31:57.693Z,20.13
2017-11-14T07:34:25.163Z,11.43
2017-11-14T07:36:52.605Z,13.93
2017-11-14T07:39:20.070Z,14.43
2017-11-14T07:41:47.561Z,14.77
2017-11-14T07:44:15.041Z,10.20
2017-11-14T07:46:44.175Z,14.94
2017-11-14T07:49:11.713Z,10.68
2017-11-14T07:51:39.145Z,8.63
2017-11-14T07:54:06.620Z,11.93
2017-11-14T07:56:34.825Z,11.45
2017-11-14T07:59:02.358Z,12.65
2017-11-14T08:01:30.597Z,14.63
2017-11-14T08:03:58.026Z,10.83
2017-11-14T08:06:25.474Z,12.57
2017-11-14T08:08:53.033Z,13.80
2017-11-14T08:11:20.506Z,9.63
2017-11-14T08:13:47.955Z,17.43
2017-11-14T08:16:16.341Z,12.87
2017-11-14T08:18:43.784Z,15.83
2017-11-14T08:21:11.265Z,10.20
2017-11-14T08:23:38.706Z,13.43
2017-11-14T08:26:07.042Z,12.63
2017-11-14T08:28:35.219Z,14.18
2017-11-14T08:31:03.154Z,14.70
2017-11-14T08:33:31.527Z,12.30
2017-11-14T08:35:58.971Z,12.80
2017-11-14T08:38:26.433Z,9.73
2017-11-14T08:40:54.854Z,17.92
2017-11-14T08:43:23.057Z,18.57
2017-11-14T08:45:54.154Z,14.60
2017-11-14T08:48:21.596Z,13.00
2017-11-14T08:50:50.253Z,13.60
2017-11-14T08:53:17.701Z,14.32
2017-11-14T08:55:45.185Z,13.85
2017-11-14T08:58:12.618Z,10.17
2017-11-14T09:00:40.069Z,12.67
2017-11-14T09:03:07.859Z,13.88
2017-11-14T09:05:35.330Z,11.80
2017-11-14T09:08:03.226Z,22.95
2017-11-14T09:10:31.638Z,15.45
2017-11-14T09:12:59.070Z,12.60
2017-11-14T09:15:32.830Z,11.47
2017-11-14T09:18:00.458Z,15.67
2017-11-14T09:20:29.246Z,11.93
2017-11-14T09:22:56.908Z,19.10
2017-11-14T09:25:24.367Z,16.63
2017-11-14T09:27:51.797Z,12.37
2017-11-14T09:30:20.070Z,14.83
2017-11-14T09:32:47.506Z,26.05
2017-11-14T09:35:14.950Z,16.27
2017-11-14T09:37:42.418Z,16.10
2017-11-14T09:40:09.869Z,12.18
2017-11-14T09:42:38.859Z,23.07
2017-11-14T09:45:07.239Z,16.77
2017-11-14T09:47:38.398Z,14.05
2017-11-14T09:50:05.846Z,14.13
2017-11-14T09:52:33.306Z,24.93
2017-11-14T09:55:00.753Z,17.97
2017-11-14T09:57:28.225Z,14.60
2017-11-14T09:59:56.405Z,12.82
2017-11-14T10:02:24.618Z,17.83
2017-11-14T10:04:52.074Z,17.53
2017-11-14T10:07:19.531Z,14.93
2017-11-14T10:09:47.011Z,14.67
2017-11-14T10:12:15.401Z,16.37
2017-11-14T10:14:42.838Z,15.77
2017-11-14T10:17:10.286Z,18.97
2017-11-14T10:19:39.534Z,18.90
2017-11-14T10:22:07.014Z,17.17
2017-11-14T10:24:34.545Z,24.65
2017-11-14T10:27:01.995Z,24.63
2017-11-14T10:29:29.470Z,17.17
2017-11-14T10:32:00.596Z,15.77
2017-11-14T10:34:28.030Z,19.33
2017-11-14T10:36:56.050Z,15.85
2017-11-14T10:39:23.870Z,18.84
2017-11-14T10:41:51.338Z,15.20
2017-11-14T10:44:19.319Z,13.98
2017-11-14T10:46:46.778Z,15.70
2017-11-14T10:49:15.020Z,16.90
2017-11-14T10:51:42.808Z,13.62
2017-11-14T10:54:10.246Z,18.62
2017-11-14T10:56:37.715Z,21.53
2017-11-14T10:59:05.174Z,26.05
2017-11-14T11:01:39.924Z,20.02
2017-11-14T11:04:07.677Z,14.98
2017-11-14T11:06:35.150Z,15.75
2017-11-14T11:09:02.602Z,18.30
2017-11-14T11:11:30.114Z,12.00
2017-11-14T11:13:57.797Z,25.35
2017-11-14T11:16:32.054Z,16.97
2017-11-14T11:19:03.158Z,19.67
2017-11-14T11:21:30.605Z,20.45
2017-11-14T11:23:58.047Z,11.00
2017-11-14T11:26:25.570Z,19.03
2017-11-14T11:28:53.194Z,15.37
2017-11-14T11:31:22.582Z,16.20
2017-11-14T11:33:53.431Z,15.57
2017-11-14T11:36:20.891Z,18.87
2017-11-14T11:38:48.337Z,13.37
2017-11-14T11:41:16.275Z,17.70
2017-11-14T11:43:43.711Z,14.23
2017-11-14T11:46:11.641Z,11.77
2017-11-14T11:48:43.398Z,13.65
2017-11-14T11:51:13.517Z,16.77
2017-11-14T11:53:41.326Z,28.27
2017-11-14T11:56:08.787Z,16.23
2017-11-14T11:58:36.624Z,15.63
2017-11-14T12:01:04.074Z,13.90
2017-11-14T12:03:35.511Z,11.60
2017-11-14T12:06:02.953Z,14.57
2017-11-14T12:08:30.414Z,16.80
2017-11-14T12:10:57.863Z,15.23
2017-11-14T12:13:26.128Z,12.65
2017-11-14T12:15:53.575Z,14.00
2017-11-14T12:18:25.814Z,17.77
2017-11-14T12:20:53.275Z,15.73
2017-11-14T12:23:21.020Z,17.60
2017-11-14T12:25:48.489Z,14.40
2017-11-14T12:28:16.018Z,13.47
2017-11-14T12:30:43.682Z,18.67
2017-11-14T12:33:11.112Z,15.50
2017-11-14T12:35:38.598Z,16.12
2017-11-14T12:38:06.064Z,31.57
2017-11-14T12:40:33.509Z,14.20
2017-11-14T12:43:00.974Z,16.67
2017-11-14T12:45:29.367Z,22.80
2017-11-14T12:47:56.861Z,15.50
2017-11-14T12:50:24.291Z,18.40
2017-11-14T12:52:51.789Z,16.80
2017-11-14T12:55:19.336Z,14.57
2017-11-14T12:57:46.838Z,21.10
2017-11-14T13:00:14.302Z,19.40
2017-11-14T13:02:41.751Z,25.07
2017-11-14T13:05:09.206Z,14.20
2017-11-14T13:07:37.410Z,17.50
2017-11-14T13:10:05.001Z,15.25
2017-11-14T13:12:32.594Z,13.98
2017-11-14T13:15:02.476Z,14.97
2017-11-14T13:17:29.933Z,15.13
2017-11-14T13:19:57.681Z,13.93
2017-11-14T13:22:25.116Z,16.27
2017-11-14T13:24:52.604Z,17.47
2017-11-14T13:27:20.035Z,15.60
2017-11-14T13:29:47.526Z,21.70
2017-11-14T13:32:15.943Z,18.98
2017-11-14T13:34:43.386Z,17.03
2017-11-14T13:37:10.853Z,22.70
2017-11-14T13:39:38.326Z,26.20
2017-11-14T13:42:05.766Z,20.23
2017-11-14T13:44:33.235Z,17.48
2017-11-14T13:47:00.850Z,16.23
2017-11-14T13:49:33.363Z,23.38
2017-11-14T13:52:00.805Z,27.90
2017-11-14T13:54:28.250Z,27.87
2017-11-14T13:56:55.717Z,32.17
2017-11-14T13:59:24.938Z,36.43
2017-11-14T14:01:52.377Z,39.58
2017-11-14T14:04:20.207Z,31.17
2017-11-14T14:06:47.875Z,32.13
2017-11-14T14:09:15.306Z,29.40
2017-11-14T14:11:44.462Z,29.10
2017-11-14T14:14:11.982Z,42.30
2017-11-14T14:16:39.470Z,29.87
2017-11-14T14:19:07.079Z,26.20
2017-11-14T14:21:34.638Z,25.30
2017-11-14T14:24:02.841Z,29.77
2017-11-14T14:26:30.271Z,36.67
2017-11-14T14:28:58.500Z,31.13
2017-11-14T14:31:26.032Z,33.88
2017-11-14T14:33:53.510Z,27.33
2017-11-14T14:36:23.939Z,26.75
2017-11-14T14:38:52.062Z,25.85
2017-11-14T14:41:19.689Z,28.87
2017-11-14T14:43:47.588Z,15.43
2017-11-14T14:46:15.794Z,33.37
2017-11-14T14:48:43.269Z,38.30
2017-11-14T14:51:18.734Z,30.98
2017-11-14T14:53:46.490Z,34.88
2017-11-14T14:56:13.950Z,28.43
2017-11-14T14:58:42.114Z,32.35
2017-11-14T15:01:17.849Z,30.00
2017-11-14T15:03:46.238Z,27.40
2017-11-14T15:06:13.686Z,27.62
2017-11-14T15:08:41.131Z,33.10
2017-11-14T15:11:08.606Z,22.33
2017-11-14T15:13:36.079Z,27.33
2017-11-14T15:16:03.550Z,29.93
2017-11-14T15:18:31.629Z,35.42
2017-11-14T15:21:02.443Z,38.55
2017-11-14T15:23:30.106Z,29.87
2017-11-14T15:25:57.694Z,32.15
2017-11-14T15:28:25.169Z,29.15
2017-11-14T15:30:52.594Z,25.23
2017-11-14T15:33:21.190Z,33.55
2017-11-14T15:35:48.927Z,32.27
2017-11-14T15:38:16.395Z,25.67
2017-11-14T15:40:43.834Z,27.80
2017-11-14T15:43:12.426Z,31.60
2017-11-14T15:45:41.558Z,30.00
2017-11-14T15:48:09.006Z,31.23
2017-11-14T15:50:36.513Z,31.77
2017-11-14T15:53:05.699Z,32.65
2017-11-14T15:55:33.125Z,30.90
2017-11-14T15:58:01.901Z,27.15
2017-11-14T16:00:29.984Z,39.95
2017-11-14T16:02:57.472Z,33.70
2017-11-14T16:05:25.673Z,35.87
2017-11-14T16:07:53.130Z,37.33
2017-11-14T16:10:20.704Z,29.77
2017-11-14T16:12:48.806Z,30.62
2017-11-14T16:15:17.041Z,38.60
2017-11-14T16:17:44.524Z,35.38
2017-11-14T16:20:12.005Z,42.30
2017-11-14T16:22:39.646Z,46.97
2017-11-14T16:25:07.106Z,43.42
2017-11-14T16:27:34.831Z,47.20
2017-11-14T16:30:03.486Z,27.15
2017-11-14T16:32:30.966Z,29.03
2017-11-14T16:34:58.440Z,31.70
2017-11-14T16:37:25.905Z,45.27
2017-11-14T16:39:56.953Z,40.55
2017-11-14T16:42:24.498Z,33.73
2017-11-14T16:44:52.873Z,30.03
2017-11-14T16:47:20.322Z,28.50
2017-11-14T16:49:47.790Z,28.03
2017-11-14T16:52:15.271Z,26.53
2017-11-14T16:54:47.345Z,33.22
2017-11-14T16:57:14.925Z,25.17
2017-11-14T16:59:43.448Z,15.63
2017-11-14T17:02:11.728Z,22.45
2017-11-14T17:04:39.174Z,23.30
2017-11-14T17:07:06.739Z,21.83
2017-11-14T17:09:38.197Z,32.07
2017-11-14T17:12:06.585Z,27.27
2017-11-14T17:14:34.051Z,28.83
2017-11-14T17:17:01.653Z,32.53
2017-11-14T17:19:29.728Z,33.20
2017-11-14T17:21:57.169Z,35.20
2017-11-14T17:24:29.391Z,24.10
2017-11-14T17:26:56.857Z,32.80
2017-11-14T17:29:24.326Z,32.60
2017-11-14T17:31:51.789Z,36.30
2017-11-14T17:34:19.454Z,31.17
2017-11-14T17:36:46.900Z,35.43
2017-11-14T17:39:18.494Z,32.17
2017-11-14T17:41:45.934Z,33.13
2017-11-14T17:44:13.535Z,31.77
2017-11-14T17:46:42.256Z,30.00
2017-11-14T17:49:09.857Z,35.92
2017-11-14T17:51:37.724Z,39.27
2017-11-14T17:54:08.710Z,36.33
2017-11-14T17:56:36.308Z,38.90
2017-11-14T17:59:05.444Z,38.50
2017-11-14T18:01:32.902Z,34.80
2017-11-14T18:04:01.091Z,34.63
2017-11-14T18:06:28.578Z,35.13
2017-11-14T18:08:56.790Z,40.43
2017-11-14T18:11:24.243Z,30.70
2017-11-14T18:13:51.713Z,39.50
2017-11-14T18:16:19.183Z,34.40
2017-11-14T18:18:46.642Z,38.13
2017-11-14T18:21:14.122Z,38.90
2017-11-14T18:23:41.831Z,38.67
2017-11-14T18:26:09.274Z,31.63
2017-11-14T18:28:37.445Z,32.33
2017-11-14T18:31:04.885Z,27.77
2017-11-14T18:33:33.022Z,27.43
2017-11-14T18:36:00.491Z,34.80
2017-11-14T18:38:28.020Z,35.80
2017-11-14T18:40:55.511Z,35.13
2017-11-14T18:43:22.982Z,32.17
2017-11-14T18:45:52.155Z,26.70
2017-11-14T18:48:19.749Z,32.53
2017-11-14T18:50:47.195Z,36.17
2017-11-14T18:53:14.791Z,40.23
2017-11-14T18:55:42.230Z,37.17
2017-11-14T18:58:10.442Z,35.30
2017-11-14T19:00:37.914Z,26.90
2017-11-14T19:03:05.406Z,29.85
2017-11-14T19:05:33.677Z,26.07
2017-11-14T19:08:01.898Z,24.85
2017-11-14T19:10:29.654Z,29.23
2017-11-14T19:12:57.702Z,27.53
2017-11-14T19:15:25.975Z,29.12
2017-11-14T19:17:55.145Z,28.83
2017-11-14T19:20:22.766Z,28.57
2017-11-14T19:22:50.250Z,28.60
2017-11-14T19:25:17.701Z,42.53
2017-11-14T19:27:45.179Z,33.30
2017-11-14T19:30:13.569Z,30.95
2017-11-14T19:32:41.031Z,35.90
2017-11-14T19:35:09.245Z,29.37
2017-11-14T19:37:36.988Z,31.67
2017-11-14T19:40:04.538Z,27.10
2017-11-14T19:42:32.394Z,22.50
2017-11-14T19:44:59.978Z,32.73
2017-11-14T19:47:27.470Z,26.77
2017-11-14T19:49:55.080Z,25.30
2017-11-14T19:52:22.587Z,25.07
2017-11-14T19:54:50.046Z,21.60
2017-11-14T19:57:17.534Z,28.00
2017-11-14T19:59:47.410Z,26.13
2017-11-14T20:02:14.881Z,32.00
2017-11-14T20:04:42.361Z,28.25
2017-11-14T20:07:10.054Z,26.40
2017-11-14T20:09:37.860Z,26.70
2017-11-14T20:12:05.885Z,28.23
2017-11-14T20:14:36.799Z,24.13
2017-11-14T20:17:07.636Z,27.77
2017-11-14T20:19:35.917Z,23.50
2017-11-14T20:22:03.371Z,24.40
2017-11-14T20:24:31.239Z,22.70
2017-11-14T20:27:02.478Z,19.13
2017-11-14T20:29:30.750Z,27.95
2017-11-14T20:31:58.719Z,22.80
2017-11-14T20:34:26.227Z,28.75
2017-11-14T20:36:53.971Z,24.37
2017-11-14T20:39:21.433Z,22.00
2017-11-14T20:41:53.558Z,23.62
2017-11-14T20:44:24.993Z,25.10
2017-11-14T20:46:52.426Z,29.37
2017-11-14T20:49:20.367Z,25.27
2017-11-14T20:51:48.915Z,26.58
2017-11-14T20:54:16.385Z,18.40
2017-11-14T20:56:43.821Z,30.00
2017-11-14T20:59:11.359Z,22.87
2017-11-14T21:01:38.820Z,23.92
2017-11-14T21:04:06.266Z,20.87
2017-11-14T21:06:35.234Z,23.77
2017-11-14T21:09:02.669Z,26.50
2017-11-14T21:11:34.141Z,26.63
2017-11-14T21:14:04.630Z,20.40
2017-11-14T21:16:32.110Z,23.10
2017-11-14T21:18:59.569Z,21.83
2017-11-14T21:21:27.013Z,22.43
2017-11-14T21:23:54.479Z,26.00
2017-11-14T21:26:21.929Z,23.97
2017-11-14T21:28:49.414Z,24.97
2017-11-14T21:31:16.892Z,25.45
2017-11-14T21:33:44.391Z,24.57
2017-11-14T21:36:11.875Z,23.37
2017-11-14T21:38:40.098Z,23.10
2017-11-14T21:41:07.817Z,17.92
2017-11-14T21:43:38.410Z,21.00
2017-11-14T21:46:05.858Z,20.90
2017-11-14T21:48:33.330Z,24.67
2017-11-14T21:51:00.802Z,23.03
2017-11-14T21:53:28.446Z,21.17
2017-11-14T21:55:57.592Z,21.83
2017-11-14T21:58:25.087Z,22.13
2017-11-14T22:00:52.535Z,25.15
2017-11-14T22:03:20.020Z,22.25
2017-11-14T22:05:47.597Z,21.80
2017-11-14T22:08:15.959Z,20.60
2017-11-14T22:10:44.189Z,22.83
2017-11-14T22:13:14.874Z,18.97
2017-11-14T22:15:42.333Z,20.43
2017-11-14T22:18:09.769Z,19.83
2017-11-14T22:20:37.577Z,30.65
2017-11-14T22:23:06.346Z,20.42
2017-11-14T22:25:34.082Z,19.90
2017-11-14T22:28:02.096Z,18.30
2017-11-14T22:30:31.229Z,19.58
2017-11-14T22:32:58.748Z,20.00
2017-11-14T22:35:26.953Z,19.07
2017-11-14T22:37:55.245Z,19.38
2017-11-14T22:40:22.834Z,20.33
2017-11-14T22:42:51.879Z,20.02
2017-11-14T22:45:35.910Z,24.02
2017-11-14T22:48:03.386Z,20.52
2017-11-14T22:50:30.845Z,22.45
2017-11-14T22:52:58.325Z,20.85
2017-11-14T22:55:25.866Z,19.70
2017-11-14T22:57:53.313Z,25.10
2017-11-14T23:00:31.533Z,18.40
2017-11-14T23:02:58.987Z,20.25
2017-11-14T23:05:26.655Z,20.90
2017-11-14T23:07:54.098Z,20.50
2017-11-14T23:10:22.413Z,24.02
2017-11-14T23:12:50.044Z,23.67
2017-11-14T23:15:17.489Z,23.77
2017-11-14T23:17:44.970Z,21.40
2017-11-14T23:20:12.429Z,25.00
2017-11-14T23:22:39.900Z,27.27
2017-11-14T23:25:07.382Z,23.63
2017-11-14T23:27:35.847Z,25.60
2017-11-14T23:30:03.315Z,23.27
2017-11-14T23:32:31.575Z,18.90
2017-11-14T23:35:00.706Z,25.62
2017-11-14T23:37:28.159Z,21.43
2017-11-14T23:39:55.626Z,21.07
2017-11-14T23:42:23.065Z,21.00
2017-11-14T23:44:54.821Z,23.20
2017-11-14T23:47:22.441Z,24.27
2017-11-14T23:49:50.192Z,25.60
2017-11-14T23:52:17.655Z,22.50
2017-11-14T23:54:45.122Z,22.17
2017-11-14T23:57:12.653Z,24.70
2017-11-14T23:59:43.174Z,30.40
